createdAt,value
2017-04-11T00:00:26.417Z,67.00
2017-04-11T00:02:26.431Z,66.90
2017-04-11T00:03:27.125Z,66.70
2017-04-11T00:04:27.083Z,66.80
2017-04-11T00:05:27.004Z,67.00
2017-04-11T00:06:26.980Z,66.80
2017-04-11T00:07:26.943Z,67.00
2017-04-11T00:08:26.859Z,67.00
2017-04-11T00:09:27.569Z,67.80
2017-04-11T00:12:58.343Z,67.20
2017-04-11T00:13:59.023Z,67.60
2017-04-11T00:14:59.057Z,67.90
2017-04-11T00:16:59.175Z,68.90
2017-04-11T00:17:59.871Z,69.00
2017-04-11T00:18:59.812Z,68.80
2017-04-11T00:19:59.827Z,69.70
2017-04-11T00:20:59.811Z,69.10
2017-04-11T00:22:01.185Z,69.40
2017-04-11T00:23:01.175Z,69.60
2017-04-11T00:24:01.868Z,70.00
2017-04-11T00:25:01.860Z,69.30
2017-04-11T00:26:01.812Z,69.90
2017-04-11T00:27:02.536Z,69.70
2017-04-11T00:28:02.493Z,69.60
2017-04-11T00:29:02.432Z,69.50
2017-04-11T00:30:03.136Z,69.60
2017-04-11T00:32:03.980Z,69.70
2017-04-11T00:33:03.928Z,69.50
2017-04-11T00:34:03.864Z,69.80
2017-04-11T00:35:03.842Z,70.20
2017-04-11T00:36:03.805Z,70.40
2017-04-11T00:37:04.596Z,70.60
2017-04-11T00:38:04.572Z,70.50
2017-04-11T00:39:04.823Z,70.00
2017-04-11T00:40:04.872Z,70.40
2017-04-11T00:41:05.626Z,70.60
2017-04-11T00:42:05.550Z,71.00
2017-04-11T00:43:05.524Z,71.10
2017-04-11T00:44:05.458Z,70.80
2017-04-11T00:45:05.415Z,70.50
2017-04-11T00:46:06.176Z,71.00
2017-04-11T00:47:06.364Z,70.60
2017-04-11T00:48:06.328Z,71.50
2017-04-11T00:49:06.284Z,70.30
2017-04-11T00:50:06.244Z,70.60
2017-04-11T00:51:06.236Z,70.40
2017-04-11T00:52:06.228Z,70.30
2017-04-11T00:53:06.227Z,70.50
2017-04-11T00:54:06.179Z,70.50
2017-04-11T00:55:06.856Z,70.30
2017-04-11T00:56:06.793Z,70.90
2017-04-11T00:57:06.704Z,70.80
2017-04-11T00:58:06.684Z,71.20
2017-04-11T00:59:06.623Z,70.90
2017-04-11T01:00:07.348Z,71.30
2017-04-11T01:01:08.085Z,71.10
2017-04-11T01:02:08.767Z,71.40
2017-04-11T01:03:08.772Z,72.00
2017-04-11T01:04:08.721Z,72.00
2017-04-11T01:05:09.400Z,72.20
2017-04-11T01:06:09.339Z,72.40
2017-04-11T01:07:10.034Z,72.40
2017-04-11T01:08:10.036Z,72.50
2017-04-11T01:09:09.996Z,72.40
2017-04-11T01:11:28.934Z,72.00
2017-04-11T01:12:29.676Z,72.30
2017-04-11T01:13:29.642Z,72.50
2017-04-11T01:14:29.572Z,72.80
2017-04-11T01:15:29.536Z,72.70
2017-04-11T01:16:29.538Z,73.40
2017-04-11T01:17:29.460Z,73.50
2017-04-11T01:18:29.433Z,73.50
2017-04-11T01:19:29.376Z,73.50
2017-04-11T01:20:29.315Z,73.80
2017-04-11T01:21:29.280Z,74.10
2017-04-11T01:22:29.276Z,74.00
2017-04-11T01:23:29.250Z,74.30
2017-04-11T01:24:29.192Z,74.00
2017-04-11T01:25:29.148Z,73.70
2017-04-11T01:26:29.100Z,74.00
2017-04-11T01:27:29.031Z,73.80
2017-04-11T01:28:29.784Z,74.10
2017-04-11T01:29:29.724Z,74.00
2017-04-11T01:30:29.659Z,73.90
2017-04-11T01:31:30.360Z,73.60
2017-04-11T01:32:30.326Z,74.10
2017-04-11T01:33:30.272Z,74.30
2017-04-11T01:34:30.229Z,74.40
2017-04-11T01:35:30.175Z,74.20
2017-04-11T01:36:30.088Z,74.60
2017-04-11T01:37:30.063Z,74.50
2017-04-11T01:38:30.071Z,74.40
2017-04-11T01:39:30.012Z,74.70
2017-04-11T01:40:29.943Z,74.70
2017-04-11T01:41:30.636Z,74.90
2017-04-11T01:42:30.587Z,74.90
2017-04-11T01:43:31.277Z,75.20
2017-04-11T01:45:31.328Z,75.50
2017-04-11T01:46:31.243Z,75.50
2017-04-11T01:47:31.183Z,75.50
2017-04-11T01:48:31.184Z,75.40
2017-04-11T01:49:31.154Z,75.40
2017-04-11T01:50:31.101Z,76.10
2017-04-11T01:51:31.023Z,75.80
2017-04-11T01:53:31.121Z,75.90
2017-04-11T01:54:31.140Z,75.80
2017-04-11T01:55:31.124Z,75.70
2017-04-11T01:56:31.052Z,75.60
2017-04-11T01:57:31.783Z,76.90
2017-04-11T01:58:32.509Z,75.90
2017-04-11T01:59:33.197Z,75.90
2017-04-11T02:00:33.185Z,76.20
2017-04-11T02:01:33.122Z,76.30
2017-04-11T02:02:33.086Z,76.30
2017-04-11T02:03:33.078Z,76.30
2017-04-11T02:04:33.847Z,76.00
2017-04-11T02:05:33.804Z,76.10
2017-04-11T02:06:34.492Z,76.10
2017-04-11T02:07:34.457Z,76.10
2017-04-11T02:08:34.424Z,76.40
2017-04-11T02:09:35.080Z,76.60
2017-04-11T02:10:35.014Z,76.60
2017-04-11T02:11:35.755Z,76.70
2017-04-11T02:12:55.711Z,76.40
2017-04-11T02:13:56.034Z,75.90
2017-04-11T02:14:55.997Z,75.50
2017-04-11T02:15:55.912Z,75.50
2017-04-11T02:16:55.829Z,75.40
2017-04-11T02:17:55.748Z,75.50
2017-04-11T02:18:55.699Z,75.50
2017-04-11T02:19:56.377Z,75.80
2017-04-11T02:20:56.281Z,75.60
2017-04-11T02:21:56.240Z,75.60
2017-04-11T02:22:56.189Z,75.40
2017-04-11T02:23:56.094Z,75.20
2017-04-11T02:24:56.119Z,75.30
2017-04-11T02:25:56.037Z,75.20
2017-04-11T02:26:56.782Z,75.90
2017-04-11T02:27:57.436Z,75.50
2017-04-11T02:28:57.325Z,74.70
2017-04-11T02:29:57.274Z,75.00
2017-04-11T02:30:57.211Z,74.60
2017-04-11T02:31:57.883Z,74.80
2017-04-11T02:32:58.123Z,74.90
2017-04-11T02:33:58.840Z,75.40
2017-04-11T02:34:58.761Z,75.60
2017-04-11T02:35:59.473Z,76.20
2017-04-11T02:36:59.387Z,75.20
2017-04-11T02:38:00.049Z,74.80
2017-04-11T02:39:00.000Z,74.90
2017-04-11T02:39:59.916Z,75.10
2017-04-11T02:41:00.575Z,74.80
2017-04-11T02:42:00.540Z,74.70
2017-04-11T02:43:00.488Z,74.80
2017-04-11T02:44:00.406Z,75.20
2017-04-11T02:45:00.385Z,75.00
2017-04-11T02:46:01.020Z,74.40
2017-04-11T02:47:00.939Z,74.50
2017-04-11T02:48:00.882Z,74.30
2017-04-11T02:49:00.818Z,74.70
2017-04-11T02:50:01.508Z,74.80
2017-04-11T02:51:01.411Z,74.60
2017-04-11T02:52:01.342Z,74.50
2017-04-11T02:53:02.070Z,74.50
2017-04-11T02:54:02.812Z,75.30
2017-04-11T02:55:03.624Z,74.50
2017-04-11T02:56:04.294Z,74.80
2017-04-11T02:57:04.208Z,75.50
2017-04-11T02:58:04.142Z,75.20
2017-04-11T02:59:04.852Z,75.40
2017-04-11T03:00:04.831Z,75.90
2017-04-11T03:01:04.740Z,76.00
2017-04-11T03:03:05.671Z,75.90
2017-04-11T03:04:05.607Z,76.00
2017-04-11T03:05:05.509Z,76.10
2017-04-11T03:07:05.573Z,76.60
2017-04-11T03:08:05.530Z,76.70
2017-04-11T03:09:06.188Z,77.40
2017-04-11T03:10:06.152Z,76.50
2017-04-11T03:17:43.699Z,77.00
2017-04-11T03:18:44.352Z,78.70
2017-04-11T03:19:44.257Z,79.10
2017-04-11T03:20:44.225Z,79.00
2017-04-11T03:21:44.871Z,79.30
2017-04-11T03:22:44.836Z,79.40
2017-04-11T03:23:44.768Z,79.20
2017-04-11T03:24:45.408Z,79.20
2017-04-11T03:25:45.357Z,79.20
2017-04-11T03:26:45.259Z,79.30
2017-04-11T03:27:45.144Z,79.50
2017-04-11T03:28:45.072Z,79.50
2017-04-11T03:29:45.036Z,79.10
2017-04-11T03:30:44.969Z,79.00
2017-04-11T03:31:44.872Z,79.20
2017-04-11T03:32:44.776Z,79.30
2017-04-11T03:33:44.734Z,79.40
2017-04-11T03:34:44.679Z,79.40
2017-04-11T03:35:44.670Z,79.10
2017-04-11T03:36:44.625Z,79.20
2017-04-11T03:38:45.441Z,79.10
2017-04-11T03:39:45.379Z,79.10
2017-04-11T03:40:46.086Z,79.10
2017-04-11T03:42:46.185Z,79.20
2017-04-11T03:43:46.149Z,79.20
2017-04-11T03:44:46.113Z,79.10
2017-04-11T03:46:46.917Z,79.00
2017-04-11T03:47:46.874Z,79.10
2017-04-11T03:48:47.590Z,79.30
2017-04-11T03:49:48.306Z,79.80
2017-04-11T03:51:49.100Z,79.10
2017-04-11T03:52:49.067Z,79.50
2017-04-11T03:53:48.991Z,79.20
2017-04-11T03:54:48.954Z,79.00
2017-04-11T03:55:49.670Z,79.30
2017-04-11T03:56:49.639Z,79.20
2017-04-11T03:57:49.596Z,79.20
2017-04-11T03:58:50.314Z,79.30
2017-04-11T03:59:51.010Z,79.90
2017-04-11T04:00:51.007Z,79.40
2017-04-11T04:01:51.008Z,79.40
2017-04-11T04:02:50.963Z,79.70
2017-04-11T04:03:51.656Z,79.30
2017-04-11T04:04:51.584Z,79.60
2017-04-11T04:05:52.344Z,79.00
2017-04-11T04:06:52.310Z,79.20
2017-04-11T04:08:52.349Z,79.00
2017-04-11T04:09:52.321Z,79.00
2017-04-11T04:11:00.609Z,79.10
2017-04-11T04:12:03.871Z,79.00
2017-04-11T04:13:03.827Z,78.90
2017-04-11T04:14:04.515Z,78.70
2017-04-11T04:15:04.476Z,78.80
2017-04-11T04:16:04.450Z,78.80
2017-04-11T04:17:05.240Z,79.30
2017-04-11T04:18:05.220Z,78.50
2017-04-11T04:19:05.204Z,78.80
2017-04-11T04:20:05.898Z,78.70
2017-04-11T04:21:05.872Z,79.30
2017-04-11T04:22:05.840Z,79.20
2017-04-11T04:23:06.534Z,79.00
2017-04-11T04:24:07.255Z,79.10
2017-04-11T04:25:07.256Z,79.20
2017-04-11T04:26:07.241Z,78.60
2017-04-11T04:27:07.190Z,79.10
2017-04-11T04:28:07.911Z,79.20
2017-04-11T04:29:08.628Z,79.50
2017-04-11T04:30:09.336Z,79.10
2017-04-11T04:31:09.355Z,78.90
2017-04-11T04:32:09.307Z,79.10
2017-04-11T04:33:09.255Z,79.00
2017-04-11T04:34:09.244Z,78.90
2017-04-11T04:35:09.196Z,79.10
2017-04-11T04:36:09.896Z,79.00
2017-04-11T04:37:09.897Z,79.00
2017-04-11T04:38:09.880Z,79.10
2017-04-11T04:39:09.836Z,79.20
2017-04-11T04:40:10.532Z,79.40
2017-04-11T04:41:10.525Z,79.40
2017-04-11T04:42:10.517Z,79.70
2017-04-11T04:43:10.588Z,79.30
2017-04-11T04:44:11.280Z,79.60
2017-04-11T04:45:11.280Z,79.30
2017-04-11T04:46:11.271Z,79.10
2017-04-11T04:47:11.333Z,79.60
2017-04-11T04:48:11.992Z,79.80
2017-04-11T04:49:12.007Z,80.00
2017-04-11T04:50:11.961Z,79.70
2017-04-11T04:51:12.696Z,79.60
2017-04-11T04:52:12.679Z,79.90
2017-04-11T04:53:13.484Z,79.60
2017-04-11T04:54:13.442Z,80.00
2017-04-11T04:55:13.395Z,79.90
2017-04-11T04:56:13.426Z,80.40
2017-04-11T04:57:14.266Z,80.30
2017-04-11T04:58:15.064Z,80.60
2017-04-11T04:59:15.615Z,80.80
2017-04-11T05:00:15.597Z,81.00
2017-04-11T05:01:16.400Z,81.10
2017-04-11T05:02:16.348Z,81.10
2017-04-11T05:03:16.356Z,81.50
2017-04-11T05:04:16.345Z,81.10
2017-04-11T05:05:17.800Z,81.30
2017-04-11T05:06:18.592Z,81.50
2017-04-11T05:07:18.601Z,81.20
2017-04-11T05:08:18.569Z,81.40
2017-04-11T05:09:18.584Z,81.30
2017-04-11T05:10:18.560Z,81.50
2017-04-11T05:11:18.555Z,81.60
2017-04-11T05:12:18.535Z,82.00
2017-04-11T05:13:18.528Z,82.00
2017-04-11T05:14:18.485Z,81.50
2017-04-11T05:15:18.460Z,81.10
2017-04-11T05:16:18.433Z,81.20
2017-04-11T05:17:18.493Z,81.30
2017-04-11T05:18:19.216Z,81.60
2017-04-11T05:19:19.921Z,81.60
2017-04-11T05:21:20.015Z,81.50
2017-04-11T05:22:19.999Z,81.70
2017-04-11T05:23:19.966Z,81.40
2017-04-11T05:24:20.705Z,81.00
2017-04-11T05:25:21.519Z,80.90
2017-04-11T05:26:22.216Z,80.70
2017-04-11T05:27:22.957Z,80.80
2017-04-11T05:28:23.662Z,80.50
2017-04-11T05:29:23.619Z,80.20
2017-04-11T05:30:24.673Z,80.20
2017-04-11T05:31:24.651Z,80.10
2017-04-11T05:32:24.621Z,79.60
2017-04-11T05:33:25.325Z,79.60
2017-04-11T05:34:25.332Z,79.20
2017-04-11T05:35:25.304Z,79.20
2017-04-11T05:36:25.303Z,78.70
2017-04-11T05:37:25.266Z,78.80
2017-04-11T05:38:25.988Z,78.90
2017-04-11T05:39:26.780Z,78.60
2017-04-11T05:40:26.724Z,78.70
2017-04-11T05:41:27.519Z,78.20
2017-04-11T05:42:27.572Z,78.40
2017-04-11T05:43:28.296Z,78.10
2017-04-11T05:44:28.277Z,78.10
2017-04-11T05:45:29.021Z,77.70
2017-04-11T05:46:29.757Z,77.50
2017-04-11T05:47:29.735Z,77.30
2017-04-11T05:48:30.454Z,77.00
2017-04-11T05:49:31.164Z,76.80
2017-04-11T05:50:31.113Z,76.60
2017-04-11T05:51:59.579Z,76.70
2017-04-11T05:52:59.588Z,76.50
2017-04-11T05:54:00.256Z,76.50
2017-04-11T05:55:00.296Z,76.20
2017-04-11T05:56:01.024Z,75.80
2017-04-11T05:57:01.010Z,75.70
2017-04-11T05:58:00.970Z,75.10
2017-04-11T05:59:00.921Z,75.20
2017-04-11T06:00:00.907Z,75.10
2017-04-11T06:01:00.877Z,75.20
2017-04-11T06:02:00.842Z,74.70
2017-04-11T06:03:00.828Z,74.40
2017-04-11T06:04:00.813Z,74.40
2017-04-11T06:05:00.808Z,74.30
2017-04-11T06:06:00.785Z,74.60
2017-04-11T06:07:01.479Z,74.80
2017-04-11T06:08:01.528Z,75.10
2017-04-11T06:09:02.208Z,75.30
2017-04-11T06:10:02.213Z,75.00
2017-04-11T06:11:02.637Z,74.40
2017-04-11T06:12:02.608Z,74.80
2017-04-11T06:13:03.805Z,74.50
2017-04-11T06:14:05.083Z,73.70
2017-04-11T06:15:05.056Z,74.10
2017-04-11T06:16:05.033Z,74.00
2017-04-11T06:17:05.166Z,74.40
2017-04-11T06:18:05.140Z,74.80
2017-04-11T06:19:05.083Z,74.00
2017-04-11T06:20:05.039Z,74.60
2017-04-11T06:21:05.031Z,73.80
2017-04-11T06:22:05.035Z,74.00
2017-04-11T06:23:05.012Z,74.20
2017-04-11T06:24:05.067Z,73.50
2017-04-11T06:25:05.159Z,73.60
2017-04-11T06:26:05.097Z,73.60
2017-04-11T06:27:05.083Z,73.50
2017-04-11T06:28:05.071Z,73.10
2017-04-11T06:29:05.144Z,73.00
2017-04-11T06:30:05.108Z,73.00
2017-04-11T06:31:05.111Z,72.80
2017-04-11T06:32:05.063Z,72.80
2017-04-11T06:33:05.751Z,72.70
2017-04-11T06:34:05.785Z,73.00
2017-04-11T06:35:05.751Z,72.80
2017-04-11T06:36:05.721Z,73.10
2017-04-11T06:37:05.671Z,73.20
2017-04-11T06:38:05.646Z,73.00
2017-04-11T06:39:06.319Z,73.20
2017-04-11T06:40:06.264Z,73.10
2017-04-11T06:41:06.230Z,73.10
2017-04-11T06:42:06.211Z,73.50
2017-04-11T06:43:06.184Z,73.40
2017-04-11T06:44:06.267Z,73.40
2017-04-11T06:45:06.240Z,74.40
2017-04-11T06:46:06.510Z,73.50
2017-04-11T06:47:06.600Z,73.60
2017-04-11T06:48:06.789Z,73.60
2017-04-11T06:49:07.548Z,73.60
2017-04-11T06:50:07.520Z,73.60
2017-04-11T06:51:07.516Z,74.00
2017-04-11T06:52:07.507Z,73.60
2017-04-11T06:53:07.480Z,73.70
2017-04-11T06:54:07.483Z,73.50
2017-04-11T06:55:07.471Z,73.40
2017-04-11T06:56:08.172Z,73.10
2017-04-11T06:57:08.269Z,73.00
2017-04-11T06:58:08.221Z,72.70
2017-04-11T06:59:08.195Z,72.00
2017-04-11T07:00:09.043Z,73.00
2017-04-11T07:01:09.067Z,72.40
2017-04-11T07:02:14.108Z,72.40
2017-04-11T07:03:14.101Z,72.00
2017-04-11T07:04:14.064Z,72.10
2017-04-11T07:05:14.007Z,72.20
2017-04-11T07:06:14.015Z,72.10
2017-04-11T07:07:14.020Z,72.10
2017-04-11T07:08:14.008Z,72.00
2017-04-11T07:09:13.995Z,71.70
2017-04-11T07:10:13.995Z,72.00
2017-04-11T07:11:29.018Z,72.20
2017-04-11T07:12:34.003Z,72.30
2017-04-11T07:13:33.927Z,72.40
2017-04-11T07:14:33.932Z,72.30
2017-04-11T07:15:34.639Z,72.00
2017-04-11T07:16:35.335Z,71.60
2017-04-11T07:17:35.300Z,71.40
2017-04-11T07:18:35.352Z,71.60
2017-04-11T07:19:35.368Z,71.90
2017-04-11T07:20:36.081Z,71.40
2017-04-11T07:21:36.027Z,71.80
2017-04-11T07:22:36.108Z,71.60
2017-04-11T07:23:36.946Z,71.50
2017-04-11T07:24:39.946Z,71.60
2017-04-11T07:25:40.008Z,71.50
2017-04-11T07:26:40.741Z,71.30
2017-04-11T07:27:40.715Z,71.30
2017-04-11T07:28:40.712Z,71.30
2017-04-11T07:29:40.692Z,70.80
2017-04-11T07:30:40.768Z,70.40
2017-04-11T07:31:41.607Z,70.00
2017-04-11T07:32:42.723Z,69.70
2017-04-11T07:33:43.450Z,70.70
2017-04-11T07:34:44.144Z,69.70
2017-04-11T07:35:44.131Z,69.40
2017-04-11T07:36:44.128Z,69.70
2017-04-11T07:37:44.125Z,70.20
2017-04-11T07:38:44.095Z,71.40
2017-04-11T07:39:44.807Z,72.20
2017-04-11T07:40:44.804Z,72.60
2017-04-11T07:41:44.762Z,72.50
2017-04-11T07:42:44.771Z,73.00
2017-04-11T07:43:44.746Z,72.80
2017-04-11T07:44:44.716Z,72.80
2017-04-11T07:45:44.692Z,72.30
2017-04-11T07:46:44.649Z,72.40
2017-04-11T07:47:44.786Z,72.40
2017-04-11T07:48:44.739Z,72.60
2017-04-11T07:49:44.672Z,72.50
2017-04-11T07:50:45.399Z,72.90
2017-04-11T07:51:45.368Z,72.00
2017-04-11T07:52:45.371Z,71.80
2017-04-11T07:53:45.363Z,71.90
2017-04-11T07:54:45.325Z,71.20
2017-04-11T07:55:46.076Z,71.30
2017-04-11T07:56:46.043Z,71.00
2017-04-11T07:57:46.052Z,70.40
2017-04-11T07:58:46.027Z,70.30
2017-04-11T07:59:45.997Z,70.40
2017-04-11T08:00:46.018Z,70.60
2017-04-11T08:01:45.975Z,70.70
2017-04-11T08:02:45.941Z,70.80
2017-04-11T08:03:45.893Z,70.40
2017-04-11T08:04:45.903Z,71.00
2017-04-11T08:05:45.871Z,71.10
2017-04-11T08:06:45.900Z,70.70
2017-04-11T08:07:45.924Z,70.80
2017-04-11T08:08:45.927Z,70.10
2017-04-11T08:09:46.653Z,70.00
2017-04-11T08:10:55.558Z,70.00
2017-04-11T08:11:56.485Z,70.00
2017-04-11T08:12:56.540Z,70.50
2017-04-11T08:13:56.525Z,70.30
2017-04-11T08:14:57.219Z,70.00
2017-04-11T08:15:57.159Z,69.80
2017-04-11T08:16:57.199Z,69.40
2017-04-11T08:17:57.219Z,69.00
2017-04-11T08:18:57.200Z,68.90
2017-04-11T08:19:57.208Z,68.90
2017-04-11T08:20:57.748Z,68.60
2017-04-11T08:21:57.736Z,68.30
2017-04-11T08:22:57.756Z,68.10
2017-04-11T08:23:57.748Z,67.70
2017-04-11T08:24:57.812Z,67.20
2017-04-11T08:25:57.817Z,67.10
2017-04-11T08:26:58.561Z,68.10
2017-04-11T08:27:59.269Z,66.00
2017-04-11T08:28:59.237Z,65.00
2017-04-11T08:29:59.185Z,66.20
2017-04-11T08:30:59.908Z,66.10
2017-04-11T08:32:00.684Z,63.90
2017-04-11T08:33:00.719Z,63.40
2017-04-11T08:34:00.683Z,63.00
2017-04-11T08:35:00.695Z,62.80
2017-04-11T08:36:00.697Z,64.00
2017-04-11T08:37:00.653Z,64.50
2017-04-11T08:38:00.681Z,63.50
2017-04-11T08:39:01.439Z,64.40
2017-04-11T08:40:01.336Z,63.00
2017-04-11T08:41:01.331Z,62.90
2017-04-11T08:42:01.298Z,62.60
2017-04-11T08:43:01.312Z,62.30
2017-04-11T08:44:02.064Z,61.60
2017-04-11T08:45:02.026Z,61.30
2017-04-11T08:46:02.757Z,61.70
2017-04-11T08:47:02.733Z,59.90
2017-04-11T08:48:02.752Z,59.20
2017-04-11T08:49:02.708Z,58.70
2017-04-11T08:50:02.696Z,58.30
2017-04-11T08:51:03.433Z,57.70
2017-04-11T08:52:03.425Z,56.40
2017-04-11T08:53:04.170Z,55.50
2017-04-11T08:54:04.271Z,55.00
2017-04-11T08:55:05.065Z,53.20
2017-04-11T08:57:05.156Z,50.90
2017-04-11T08:58:05.164Z,51.00
2017-04-11T08:59:05.132Z,50.80
2017-04-11T09:00:05.175Z,50.70
2017-04-11T09:01:05.139Z,50.60
2017-04-11T09:02:05.172Z,50.30
2017-04-11T09:03:05.252Z,51.00
2017-04-11T09:04:05.247Z,51.50
2017-04-11T09:05:06.000Z,51.50
2017-04-11T09:06:06.008Z,51.40
2017-04-11T09:07:06.035Z,51.30
2017-04-11T09:08:06.105Z,52.00
2017-04-11T09:09:13.503Z,51.70
2017-04-11T09:10:13.452Z,51.50
2017-04-11T09:11:13.463Z,51.80
2017-04-11T09:12:13.489Z,51.40
2017-04-11T09:13:14.339Z,50.80
2017-04-11T09:14:14.324Z,50.80
2017-04-11T09:15:14.996Z,50.80
2017-04-11T09:16:14.988Z,50.20
2017-04-11T09:17:14.961Z,50.40
2017-04-11T09:18:14.972Z,50.70
2017-04-11T09:19:15.701Z,50.60
2017-04-11T09:20:16.383Z,50.60
2017-04-11T09:21:16.400Z,50.80
2017-04-11T09:22:16.367Z,50.70
2017-04-11T09:23:16.396Z,50.10
2017-04-11T09:24:16.415Z,49.20
2017-04-11T09:25:16.981Z,47.90
2017-04-11T09:26:16.970Z,47.70
2017-04-11T09:27:17.698Z,47.50
2017-04-11T09:28:17.708Z,46.70
2017-04-11T09:29:17.677Z,46.50
2017-04-11T09:30:17.660Z,46.50
2017-04-11T09:31:17.612Z,46.20
2017-04-11T09:32:18.335Z,45.40
2017-04-11T09:33:19.076Z,44.40
2017-04-11T09:34:19.047Z,44.20
2017-04-11T09:35:19.044Z,43.90
2017-04-11T09:36:19.093Z,43.20
2017-04-11T09:37:19.078Z,43.20
2017-04-11T09:38:19.103Z,42.80
2017-04-11T09:39:19.095Z,42.00
2017-04-11T09:40:19.852Z,41.90
2017-04-11T09:41:19.844Z,42.30
2017-04-11T09:42:19.850Z,42.60
2017-04-11T09:43:19.980Z,42.70
2017-04-11T09:44:19.923Z,42.50
2017-04-11T09:45:19.872Z,41.40
2017-04-11T09:46:19.838Z,40.00
2017-04-11T09:47:19.836Z,40.40
2017-04-11T09:48:19.892Z,41.20
2017-04-11T09:49:19.895Z,41.20
2017-04-11T09:50:20.580Z,41.10
2017-04-11T09:51:20.556Z,40.50
2017-04-11T09:52:20.528Z,40.30
2017-04-11T09:53:20.644Z,40.30
2017-04-11T09:54:20.701Z,40.50
2017-04-11T09:55:20.657Z,40.30
2017-04-11T09:56:20.611Z,39.50
2017-04-11T09:57:20.567Z,38.00
2017-04-11T09:58:21.152Z,37.10
2017-04-11T10:00:21.304Z,36.40
2017-04-11T10:01:21.306Z,36.90
2017-04-11T10:02:21.258Z,37.20
2017-04-11T10:03:21.276Z,38.00
2017-04-11T10:04:21.284Z,38.00
2017-04-11T10:05:21.293Z,39.10
2017-04-11T10:06:21.292Z,40.10
2017-04-11T10:07:21.277Z,40.20
2017-04-11T10:08:21.265Z,40.50
2017-04-11T10:09:21.229Z,40.90
2017-04-11T10:10:33.705Z,40.30
2017-04-11T10:11:33.692Z,40.50
2017-04-11T10:12:33.667Z,41.00
2017-04-11T10:13:33.706Z,40.60
2017-04-11T10:14:33.732Z,39.90
2017-04-11T10:15:33.700Z,40.50
2017-04-11T10:16:33.644Z,40.80
2017-04-11T10:17:33.700Z,41.00
2017-04-11T10:18:34.391Z,41.40
2017-04-11T10:19:34.424Z,41.10
2017-04-11T10:20:35.179Z,41.20
2017-04-11T10:21:35.175Z,41.10
2017-04-11T10:22:35.229Z,41.60
2017-04-11T10:23:35.254Z,41.20
2017-04-11T10:24:35.264Z,41.30
2017-04-11T10:25:36.063Z,41.20
2017-04-11T10:26:36.115Z,40.10
2017-04-11T10:27:36.942Z,39.70
2017-04-11T10:28:37.629Z,39.40
2017-04-11T10:29:37.671Z,39.90
2017-04-11T10:30:37.779Z,39.60
2017-04-11T10:31:38.484Z,39.60
2017-04-11T10:32:38.472Z,39.30
2017-04-11T10:33:38.435Z,39.10
2017-04-11T10:34:38.454Z,39.10
2017-04-11T10:35:38.408Z,38.00
2017-04-11T10:36:38.395Z,38.20
2017-04-11T10:37:38.394Z,37.90
2017-04-11T10:38:38.361Z,38.10
2017-04-11T10:39:38.380Z,38.60
2017-04-11T10:40:38.427Z,37.90
2017-04-11T10:41:38.381Z,37.80
2017-04-11T10:42:38.327Z,37.10
2017-04-11T10:43:38.305Z,36.50
2017-04-11T10:44:38.348Z,35.30
2017-04-11T10:45:38.371Z,33.70
2017-04-11T10:46:38.361Z,33.30
2017-04-11T10:47:38.316Z,32.50
2017-04-11T10:48:38.264Z,31.10
2017-04-11T10:49:38.247Z,31.20
2017-04-11T10:50:38.228Z,31.60
2017-04-11T10:51:38.204Z,33.20
2017-04-11T10:52:38.237Z,34.10
2017-04-11T10:53:38.199Z,35.70
2017-04-11T10:54:38.355Z,36.50
2017-04-11T10:55:38.315Z,37.80
2017-04-11T10:56:38.310Z,38.70
2017-04-11T10:57:38.292Z,39.70
2017-04-11T10:58:38.237Z,40.30
2017-04-11T10:59:38.229Z,40.40
2017-04-11T11:00:38.287Z,40.30
2017-04-11T11:01:38.337Z,40.70
2017-04-11T11:02:38.279Z,39.20
2017-04-11T11:03:39.000Z,38.10
2017-04-11T11:04:39.000Z,35.90
2017-04-11T11:05:38.982Z,33.50
2017-04-11T11:06:38.986Z,31.80
2017-04-11T11:07:38.967Z,30.80
2017-04-11T11:08:38.931Z,30.00
2017-04-11T11:09:39.667Z,29.40
2017-04-11T11:10:39.649Z,28.60
2017-04-11T11:11:48.872Z,28.40
2017-04-11T11:12:50.473Z,28.30
2017-04-11T11:14:07.165Z,27.60
2017-04-11T11:15:08.065Z,27.20
2017-04-11T11:16:08.844Z,27.60
2017-04-11T11:17:08.865Z,27.80
2017-04-11T11:18:08.876Z,27.40
2017-04-11T11:19:08.852Z,27.20
2017-04-11T11:20:08.828Z,26.80
2017-04-11T11:21:08.868Z,26.40
2017-04-11T11:22:08.888Z,26.00
2017-04-11T11:23:08.908Z,25.90
2017-04-11T11:24:08.881Z,26.20
2017-04-11T11:25:08.907Z,26.30
2017-04-11T11:26:08.867Z,25.50
2017-04-11T11:27:08.848Z,25.40
2017-04-11T11:28:08.888Z,24.90
2017-04-11T11:29:08.888Z,24.20
2017-04-11T11:30:09.639Z,23.60
2017-04-11T11:31:09.613Z,22.90
2017-04-11T11:32:10.315Z,22.20
2017-04-11T11:33:10.333Z,22.60
2017-04-11T11:34:11.065Z,22.90
2017-04-11T11:35:11.060Z,23.10
2017-04-11T11:36:11.068Z,23.30
2017-04-11T11:37:11.808Z,23.50
2017-04-11T11:38:11.782Z,23.70
2017-04-11T11:39:11.828Z,23.60
2017-04-11T11:40:11.789Z,23.80
2017-04-11T11:41:11.752Z,23.80
2017-04-11T11:42:11.727Z,23.40
2017-04-11T11:43:12.528Z,23.90
2017-04-11T11:44:12.484Z,24.30
2017-04-11T11:45:12.488Z,24.30
2017-04-11T11:46:12.585Z,23.50
2017-04-11T11:47:13.312Z,22.90
2017-04-11T11:48:13.304Z,22.70
2017-04-11T11:49:14.008Z,22.50
2017-04-11T11:50:13.973Z,22.10
2017-04-11T11:51:13.967Z,22.00
2017-04-11T11:52:13.934Z,22.10
2017-04-11T11:53:13.943Z,22.10
2017-04-11T11:54:14.671Z,22.10
2017-04-11T11:55:15.488Z,22.00
2017-04-11T11:56:16.220Z,21.90
2017-04-11T11:57:16.978Z,21.30
2017-04-11T11:58:16.927Z,21.20
2017-04-11T11:59:16.933Z,21.90
2017-04-11T12:00:16.921Z,22.60
2017-04-11T12:01:16.908Z,23.00
2017-04-11T12:02:16.896Z,23.70
2017-04-11T12:03:16.891Z,24.30
2017-04-11T12:04:17.608Z,24.70
2017-04-11T12:05:17.605Z,25.60
2017-04-11T12:06:17.599Z,26.20
2017-04-11T12:07:17.616Z,26.30
2017-04-11T12:08:17.564Z,26.30
2017-04-11T12:09:17.512Z,26.50
2017-04-11T12:10:17.527Z,26.40
2017-04-11T12:11:20.335Z,26.40
2017-04-11T12:12:20.295Z,26.60
2017-04-11T12:13:20.499Z,26.70
2017-04-11T12:14:20.659Z,27.00
2017-04-11T12:15:20.644Z,27.20
2017-04-11T12:16:21.419Z,27.40
2017-04-11T12:17:21.356Z,27.60
2017-04-11T12:18:21.404Z,28.50
2017-04-11T12:19:22.078Z,29.00
2017-04-11T12:20:22.020Z,30.40
2017-04-11T12:21:22.791Z,30.80
2017-04-11T12:22:22.737Z,31.20
2017-04-11T12:23:22.765Z,30.50
2017-04-11T12:24:22.758Z,30.00
2017-04-11T12:25:23.639Z,29.70
2017-04-11T12:26:23.657Z,29.60
2017-04-11T12:27:23.694Z,29.70
2017-04-11T12:28:24.407Z,29.70
2017-04-11T12:29:24.351Z,30.20
2017-04-11T12:30:24.352Z,30.70
2017-04-11T12:31:24.336Z,30.40
2017-04-11T12:32:24.344Z,29.90
2017-04-11T12:33:25.030Z,29.60
2017-04-11T12:34:24.976Z,29.00
2017-04-11T12:35:25.699Z,29.20
2017-04-11T12:36:26.433Z,29.20
2017-04-11T12:37:27.773Z,29.60
2017-04-11T12:38:28.450Z,29.10
2017-04-11T12:39:29.095Z,28.40
2017-04-11T12:40:29.796Z,28.00
2017-04-11T12:41:29.770Z,28.40
2017-04-11T12:42:29.741Z,28.90
2017-04-11T12:43:30.457Z,29.40
2017-04-11T12:44:30.440Z,29.70
2017-04-11T12:45:30.391Z,29.70
2017-04-11T12:46:30.372Z,29.90
2017-04-11T12:47:31.219Z,29.90
2017-04-11T12:48:31.907Z,29.90
2017-04-11T12:49:31.902Z,29.90
2017-04-11T12:50:31.875Z,28.80
2017-04-11T12:51:31.883Z,27.70
2017-04-11T12:52:31.840Z,26.90
2017-04-11T12:53:31.866Z,26.40
2017-04-11T12:54:32.556Z,26.30
2017-04-11T12:55:32.588Z,26.10
2017-04-11T12:56:33.357Z,26.00
2017-04-11T12:57:33.415Z,26.00
2017-04-11T12:58:34.145Z,26.50
2017-04-11T12:59:34.866Z,26.40
2017-04-11T13:00:34.799Z,26.20
2017-04-11T13:01:34.875Z,25.70
2017-04-11T13:02:35.574Z,25.80
2017-04-11T13:03:35.551Z,25.90
2017-04-11T13:04:35.597Z,25.90
2017-04-11T13:05:35.580Z,25.20
2017-04-11T13:06:35.620Z,24.90
2017-04-11T13:07:35.601Z,25.00
2017-04-11T13:08:35.558Z,25.40
2017-04-11T13:09:35.562Z,26.50
2017-04-11T13:10:35.559Z,26.50
2017-04-11T13:11:47.966Z,27.50
2017-04-11T13:12:47.947Z,28.50
2017-04-11T13:13:47.952Z,29.20
2017-04-11T13:14:48.698Z,29.90
2017-04-11T13:15:48.645Z,30.50
2017-04-11T13:16:48.636Z,31.60
2017-04-11T13:17:48.604Z,32.20
2017-04-11T13:18:48.579Z,33.20
2017-04-11T13:19:48.588Z,34.00
2017-04-11T13:20:49.438Z,34.40
2017-04-11T13:21:49.478Z,34.60
2017-04-11T13:22:49.605Z,34.50